Time;durP1;ratioP1;P1;durP2;ratioP2;P2;SDS_P1;SDS_P2;PMS_P1;PMS_P2;Temp;Humidity;BMP_temperature;BMP_pressure;BME280_temperature;BME280_humidity;BME280_pressure;Samples;Min_cycle;Max_cycle;Signal;HPM_P1;HPM_P2
2021/07/13 00:02:25;;;;;;;17.92;15.13;;;;;;;17.52;80.33;96932.20;1777087;80;25697;-83
2021/07/13 00:04:52;;;;;;;20.30;15.50;;;;;;;17.46;80.40;96924.56;1772229;80;25741;-83
2021/07/13 00:07:19;;;;;;;17.35;15.03;;;;;;;17.47;80.46;96921.29;1774862;80;25271;-82
2021/07/13 00:09:47;;;;;;;19.50;15.55;;;;;;;17.44;80.42;96914.45;1769751;79;27372;-84
2021/07/13 00:12:14;;;;;;;17.52;14.87;;;;;;;17.42;80.43;96912.53;1778873;80;25255;-82
2021/07/13 00:14:41;;;;;;;16.12;14.30;;;;;;;17.41;80.47;96906.80;1766546;79;25681;-83
2021/07/13 00:17:08;;;;;;;24.12;15.63;;;;;;;17.41;80.52;96898.61;1737560;80;25672;-79
2021/07/13 00:19:37;;;;;;;18.25;15.20;;;;;;;17.35;80.48;96902.42;1776062;80;25680;-83
2021/07/13 00:22:05;;;;;;;20.90;15.83;;;;;;;17.33;80.59;96903.22;1779283;80;27418;-84
2021/07/13 00:24:32;;;;;;;18.12;16.00;;;;;;;17.32;80.63;96900.22;1779145;80;25824;-83
2021/07/13 00:26:59;;;;;;;17.70;15.60;;;;;;;17.28;80.71;96897.73;1772050;79;25642;-84
2021/07/13 00:29:26;;;;;;;18.50;15.58;;;;;;;17.26;80.81;96892.57;1775800;80;25362;-83
2021/07/13 00:31:52;;;;;;;20.50;15.58;;;;;;;17.24;80.86;96893.91;1779359;80;26391;-83
2021/07/13 00:34:19;;;;;;;18.15;15.00;;;;;;;17.19;80.95;96897.97;1779308;79;26681;-84
2021/07/13 00:36:46;;;;;;;16.32;13.95;;;;;;;17.12;80.99;96894.67;1779123;79;25685;-84
2021/07/13 00:39:13;;;;;;;17.17;14.15;;;;;;;17.05;81.02;96894.90;1769965;80;25709;-80
2021/07/13 00:41:39;;;;;;;15.93;14.23;;;;;;;17.04;81.09;96889.70;1777827;80;25745;-84
2021/07/13 00:44:06;;;;;;;16.42;13.53;;;;;;;17.03;81.09;96890.79;1779345;80;25746;-84
2021/07/13 00:46:50;;;;;;;15.15;13.38;;;;;;;16.96;81.03;96895.67;1744785;80;27361;-83
2021/07/13 00:49:18;;;;;;;16.27;13.50;;;;;;;16.92;81.13;96892.64;1750819;80;25820;-83
2021/07/13 00:51:46;;;;;;;16.55;13.65;;;;;;;16.87;81.18;96882.55;1774176;80;25466;-83
2021/07/13 00:54:13;;;;;;;16.73;13.90;;;;;;;16.88;81.30;96876.02;1779092;79;25696;-83
2021/07/13 00:56:43;;;;;;;16.73;13.72;;;;;;;16.87;81.33;96879.00;1770197;79;25738;-82
2021/07/13 00:59:11;;;;;;;16.00;13.50;;;;;;;16.89;81.37;96876.30;1777970;80;27446;-84
2021/07/13 01:01:39;;;;;;;15.98;12.95;;;;;;;16.89;81.37;96880.39;1771015;79;25800;-83
2021/07/13 01:04:07;;;;;;;18.32;13.18;;;;;;;16.89;81.36;96880.39;1764156;80;25789;-83
2021/07/13 01:06:42;;;;;;;17.35;14.05;;;;;;;16.87;81.35;96871.64;1771167;80;25689;-84
2021/07/13 01:09:14;;;;;;;17.35;13.45;;;;;;;16.85;81.36;96872.98;1763490;80;25232;-81
2021/07/13 01:11:52;;;;;;;16.97;13.53;;;;;;;16.83;81.33;96875.97;1689354;82;27452;-83
2021/07/13 01:14:45;;;;;;;15.53;13.93;;;;;;;16.82;81.35;96872.14;1727417;81;25951;-81
2021/07/13 01:17:21;;;;;;;15.32;12.90;;;;;;;16.81;81.36;96875.41;1719425;82;26326;-82
2021/07/13 01:20:22;;;;;;;16.17;13.10;;;;;;;16.80;81.33;96870.22;1723111;82;25754;-83
2021/07/13 01:22:51;;;;;;;16.90;14.38;;;;;;;16.80;81.39;96876.49;1735155;82;25835;-83
2021/07/13 01:25:41;;;;;;;17.25;13.48;;;;;;;16.79;81.35;96868.03;1740942;82;27547;-83
2021/07/13 01:28:20;;;;;;;15.95;13.18;;;;;;;16.79;81.35;96866.67;1717882;82;25992;-83
2021/07/13 01:30:57;;;;;;;18.30;14.03;;;;;;;16.77;81.39;96862.05;1738655;82;25935;-83
2021/07/13 01:33:27;;;;;;;20.60;15.72;;;;;;;16.76;81.47;96857.69;1708831;81;26471;-85
2021/07/13 01:36:11;;;;;;;19.02;15.10;;;;;;;16.72;81.47;96849.75;1744297;82;25795;-82
2021/07/13 01:38:41;;;;;;;18.67;15.80;;;;;;;16.64;81.48;96844.80;1709516;82;27609;-82
2021/07/13 01:41:15;;;;;;;18.07;15.68;;;;;;;16.65;81.69;96841.00;1702123;83;25783;-83
2021/07/13 01:43:44;;;;;;;18.25;14.50;;;;;;;16.66;81.73;96842.64;1702128;83;25279;-83
2021/07/13 01:46:12;;;;;;;19.25;14.68;;;;;;;16.66;81.75;96845.37;1687960;83;25432;-83
2021/07/13 01:48:40;;;;;;;19.00;15.23;;;;;;;16.64;81.75;96844.80;1732035;81;25653;-84
2021/07/13 01:51:08;;;;;;;19.40;15.18;;;;;;;16.64;81.82;96840.72;1710616;83;27224;-84
2021/07/13 01:53:37;;;;;;;23.27;14.95;;;;;;;16.63;81.87;96847.78;1710191;83;25681;-85
2021/07/13 01:56:06;;;;;;;16.52;14.68;;;;;;;16.59;81.83;96847.45;1707093;83;25792;-85
2021/07/13 01:58:34;;;;;;;18.52;14.28;;;;;;;16.50;81.86;96846.31;1707113;82;25737;-84
2021/07/13 02:01:15;;;;;;;16.57;13.85;;;;;;;16.47;82.04;96840.02;1707220;83;25729;-84
2021/07/13 02:03:44;;;;;;;18.15;14.87;;;;;;;16.46;82.16;96842.46;1702098;82;27638;-84
2021/07/13 02:06:14;;;;;;;15.58;13.65;;;;;;;16.43;82.24;96842.98;1707720;82;25801;-83
2021/07/13 02:08:42;;;;;;;15.30;13.75;;;;;;;16.39;82.25;96844.60;1727609;82;25854;-84
2021/07/13 02:11:11;;;;;;;14.95;13.48;;;;;;;16.37;82.33;96846.77;1721664;82;26672;-82
2021/07/13 02:13:38;;;;;;;16.45;14.53;;;;;;;16.35;82.37;96847.56;1702566;82;25515;-82
2021/07/13 02:16:06;;;;;;;16.45;13.83;;;;;;;16.38;82.44;96849.77;1710423;82;28305;-82
2021/07/13 02:18:32;;;;;;;16.80;13.80;;;;;;;16.34;82.39;96856.27;1714335;82;25814;-82
2021/07/13 02:20:59;;;;;;;14.75;13.22;;;;;;;16.29;82.43;96858.16;1729223;82;25717;-81
2021/07/13 02:23:26;;;;;;;15.28;13.68;;;;;;;16.27;82.53;96858.95;1716970;82;25668;-81
2021/07/13 02:25:57;;;;;;;18.10;14.18;;;;;;;16.23;82.49;96859.17;1726621;82;25677;-81
2021/07/13 02:28:29;;;;;;;14.25;12.88;;;;;;;16.24;82.56;96848.03;1731948;82;28176;-81
2021/07/13 02:31:02;;;;;;;14.60;13.03;;;;;;;16.24;82.56;96856.73;1709154;82;25757;-80
2021/07/13 02:33:48;;;;;;;14.83;12.88;;;;;;;16.16;82.55;96845.80;1714032;82;26341;-83
2021/07/13 02:36:19;;;;;;;13.90;12.50;;;;;;;16.09;82.56;96851.44;1704184;82;26194;-82
2021/07/13 02:38:47;;;;;;;15.08;13.48;;;;;;;16.07;82.66;96859.05;1709273;82;25785;-83
2021/07/13 02:41:16;;;;;;;17.75;13.72;;;;;;;16.05;82.69;96858.50;1704850;82;27376;-81
2021/07/13 02:43:44;;;;;;;14.07;12.70;;;;;;;16.02;82.75;96856.30;1743987;82;25767;-82
2021/07/13 02:46:11;;;;;;;15.45;13.48;;;;;;;16.06;82.87;96853.89;1723230;81;25793;-83
2021/07/13 02:48:39;;;;;;;14.85;13.30;;;;;;;16.01;82.72;96851.10;1701674;83;26394;-81
2021/07/13 02:51:08;;;;;;;16.27;13.80;;;;;;;16.00;82.83;96849.46;1727831;82;25719;-82
2021/07/13 02:53:35;;;;;;;15.15;13.50;;;;;;;16.00;82.87;96853.01;1732894;81;27368;-83
2021/07/13 02:56:05;;;;;;;18.30;14.87;;;;;;;16.00;82.94;96857.09;1716890;82;25761;-83
2021/07/13 02:58:33;;;;;;;16.35;14.38;;;;;;;15.99;82.95;96863.61;1703580;82;25741;-83
2021/07/13 03:01:00;;;;;;;16.93;14.33;;;;;;;15.99;82.99;96870.95;1676495;84;25750;-82
2021/07/13 03:03:27;;;;;;;17.50;15.30;;;;;;;16.00;83.04;96877.50;1741261;81;25761;-83
2021/07/13 03:05:55;;;;;;;17.17;15.08;;;;;;;16.04;83.08;96874.55;1722030;82;27286;-83
2021/07/13 03:08:23;;;;;;;20.17;14.98;;;;;;;16.10;83.05;96876.23;1727746;82;25838;-83
2021/07/13 03:10:54;;;;;;;18.92;15.25;;;;;;;16.12;83.00;96873.25;1740281;82;25714;-83
2021/07/13 03:13:23;;;;;;;17.23;14.85;;;;;;;16.12;82.96;96871.35;1728459;81;26486;-82
2021/07/13 03:15:51;;;;;;;16.50;13.50;;;;;;;16.15;83.08;96873.56;1744456;82;25810;-82
2021/07/13 03:18:19;;;;;;;15.60;13.68;;;;;;;16.18;83.00;96874.38;1725464;82;27398;-84
2021/07/13 03:20:49;;;;;;;16.32;13.62;;;;;;;16.19;82.98;96877.39;1712790;83;25865;-81
2021/07/13 03:23:21;;;;;;;17.00;13.62;;;;;;;16.26;83.04;96876.36;1727121;81;26016;-83
2021/07/13 03:25:50;;;;;;;15.40;13.80;;;;;;;16.25;82.96;96876.91;1704604;83;26174;-82
2021/07/13 03:28:17;;;;;;;14.85;13.18;;;;;;;16.20;82.96;96868.14;1732312;81;25694;-84
2021/07/13 03:30:47;;;;;;;15.03;13.43;;;;;;;16.21;83.06;96865.70;1726455;81;27471;-83
2021/07/13 03:33:14;;;;;;;14.25;12.75;;;;;;;16.18;83.03;96862.70;1720862;82;25799;-83
2021/07/13 03:35:42;;;;;;;15.05;13.18;;;;;;;16.17;83.07;96871.95;1723948;83;25717;-83
2021/07/13 03:38:10;;;;;;;14.83;12.53;;;;;;;16.20;83.16;96874.13;1714809;82;26020;-82
2021/07/13 03:40:37;;;;;;;18.00;13.83;;;;;;;16.26;83.18;96877.19;1706973;82;25699;-83
2021/07/13 03:43:04;;;;;;;18.23;13.93;;;;;;;16.29;83.15;96868.50;1714734;82;27380;-82
2021/07/13 03:45:31;;;;;;;16.93;14.28;;;;;;;16.29;83.08;96871.23;1702960;83;26302;-82
2021/07/13 03:48:00;;;;;;;18.42;14.33;;;;;;;16.30;83.10;96871.48;1712760;82;26434;-82
2021/07/13 03:50:34;;;;;;;15.83;14.10;;;;;;;16.34;83.14;96872.61;1723997;81;25705;-81
2021/07/13 03:53:01;;;;;;;15.35;13.72;;;;;;;16.35;83.07;96868.80;1723898;83;25753;-82
2021/07/13 03:55:28;;;;;;;17.12;14.20;;;;;;;16.41;83.12;96869.14;1723847;81;27386;-81
2021/07/13 03:57:56;;;;;;;15.50;13.30;;;;;;;16.44;83.15;96866.41;1711941;82;25683;-83
2021/07/13 04:00:32;;;;;;;15.10;13.53;;;;;;;16.47;83.17;96858.55;1714827;83;26010;-81
2021/07/13 04:02:55;;;;;;;14.28;12.88;;;;;;;16.52;83.17;96859.13;1708808;82;25975;-83
2021/07/13 04:05:22;;;;;;;16.42;13.30;;;;;;;16.55;83.19;96864.03;1724107;81;25789;-83
2021/07/13 04:07:49;;;;;;;14.70;13.20;;;;;;;16.53;83.17;96853.97;1722229;82;27329;-82
2021/07/13 04:10:16;;;;;;;14.65;13.25;;;;;;;16.55;83.12;96857.22;1713920;82;25745;-83
2021/07/13 04:12:44;;;;;;;15.98;13.32;;;;;;;16.55;83.13;96855.86;1711352;82;25737;-82
2021/07/13 04:15:12;;;;;;;14.43;12.55;;;;;;;16.53;83.08;96853.97;1698493;83;25775;-82
2021/07/13 04:17:40;;;;;;;14.65;13.13;;;;;;;16.54;83.15;96852.89;1718187;81;25982;-83
2021/07/13 04:20:11;;;;;;;15.53;13.48;;;;;;;16.55;83.18;96856.69;1719468;82;27370;-84
2021/07/13 04:22:37;;;;;;;13.32;12.10;;;;;;;16.56;83.24;96852.87;1717157;82;25815;-83
2021/07/13 04:25:07;;;;;;;12.30;11.12;;;;;;;16.60;83.32;96862.72;1723854;83;25265;-82
2021/07/13 04:27:33;;;;;;;11.88;10.68;;;;;;;16.63;83.29;96861.41;1723877;81;25698;-82
2021/07/13 04:30:03;;;;;;;12.35;11.15;;;;;;;16.61;83.17;96856.73;1719906;82;25738;-84
2021/07/13 04:32:29;;;;;;;12.33;11.05;;;;;;;16.57;83.09;96864.59;1714907;83;27415;-82
2021/07/13 04:34:56;;;;;;;14.47;12.95;;;;;;;16.55;83.08;96857.22;1703246;83;26517;-84
2021/07/13 04:37:24;;;;;;;13.93;11.85;;;;;;;16.52;83.18;96855.87;1723939;82;25769;-82
2021/07/13 04:39:53;;;;;;;13.25;11.57;;;;;;;16.53;83.28;96847.16;1723765;82;26329;-82
2021/07/13 04:42:19;;;;;;;13.25;11.90;;;;;;;16.54;83.29;96855.61;1723891;83;26362;-84
2021/07/13 04:44:46;;;;;;;14.33;12.82;;;;;;;16.54;83.21;96856.97;1720162;82;27356;-82
2021/07/13 04:47:12;;;;;;;16.57;13.35;;;;;;;16.53;83.25;96859.42;1706177;83;26532;-84
2021/07/13 04:49:39;;;;;;;15.25;13.70;;;;;;;16.56;83.29;96850.69;1723714;83;25660;-81
2021/07/13 04:52:06;;;;;;;14.70;13.20;;;;;;;16.57;83.28;96850.97;1698342;83;26331;-83
2021/07/13 04:54:33;;;;;;;16.82;14.53;;;;;;;16.58;83.23;96848.53;1707010;82;25831;-81
2021/07/13 04:57:02;;;;;;;16.35;14.30;;;;;;;16.60;83.30;96851.00;1696551;82;26996;-80
2021/07/13 04:59:28;;;;;;;17.32;14.55;;;;;;;16.66;83.43;96852.72;1700258;82;25749;-82
2021/07/13 05:01:55;;;;;;;17.73;14.53;;;;;;;16.72;83.43;96851.11;1708114;82;25660;-81
2021/07/13 05:04:22;;;;;;;19.05;15.83;;;;;;;16.74;83.37;96847.58;1723902;83;26048;-81
2021/07/13 05:06:48;;;;;;;17.12;14.68;;;;;;;16.77;83.35;96852.52;1722171;81;25801;-81
2021/07/13 05:09:15;;;;;;;16.73;14.53;;;;;;;16.81;83.44;96850.88;1713916;82;27372;-81
2021/07/13 05:11:41;;;;;;;18.75;14.93;;;;;;;16.86;83.48;96847.38;1723616;82;25767;-81
2021/07/13 05:14:08;;;;;;;16.50;14.78;;;;;;;16.89;83.42;96844.95;1712490;82;25791;-82
2021/07/13 05:16:35;;;;;;;19.12;15.28;;;;;;;16.90;83.39;96847.92;1712944;83;25914;-81
2021/07/13 05:19:02;;;;;;;16.23;14.68;;;;;;;16.95;83.38;96844.95;1714828;83;25749;-81
2021/07/13 05:21:28;;;;;;;18.00;15.83;;;;;;;17.03;83.39;96848.53;1735149;82;27350;-81
2021/07/13 05:23:55;;;;;;;18.65;15.90;;;;;;;17.11;83.38;96843.95;1724506;81;25737;-81
2021/07/13 05:26:21;;;;;;;17.62;15.83;;;;;;;17.19;83.34;96840.16;1732080;82;26420;-81
2021/07/13 05:28:50;;;;;;;18.65;16.15;;;;;;;17.22;83.24;96837.45;1723955;83;26326;-80
2021/07/13 05:31:17;;;;;;;19.48;16.55;;;;;;;17.28;83.28;96840.45;1718377;82;25770;-81
2021/07/13 05:33:44;;;;;;;16.67;15.03;;;;;;;17.37;83.33;96831.23;1694661;83;27604;-82
2021/07/13 05:36:10;;;;;;;18.12;16.23;;;;;;;17.45;83.19;96834.79;1715081;82;25729;-82
2021/07/13 05:38:37;;;;;;;16.00;14.33;;;;;;;17.54;83.05;96834.53;1694721;83;25691;-81
2021/07/13 05:41:03;;;;;;;16.15;14.28;;;;;;;17.62;82.90;96840.30;1693748;83;25793;-82
2021/07/13 05:43:30;;;;;;;17.30;15.50;;;;;;;17.71;82.82;96830.24;1704014;83;25717;-82
2021/07/13 05:45:56;;;;;;;17.48;15.20;;;;;;;17.77;82.86;96831.88;1723812;83;27599;-82
2021/07/13 05:48:23;;;;;;;18.05;16.25;;;;;;;17.83;82.85;96830.80;1716825;83;25669;-83
2021/07/13 05:50:50;;;;;;;17.95;15.80;;;;;;;17.91;82.93;96832.98;1709877;83;25327;-83
2021/07/13 05:53:16;;;;;;;22.10;17.20;;;;;;;17.99;82.92;96829.73;1723982;83;25604;-84
2021/07/13 05:55:43;;;;;;;17.90;16.00;;;;;;;18.06;82.91;96837.10;1711048;82;26434;-83
2021/07/13 05:58:10;;;;;;;20.52;16.80;;;;;;;18.14;82.87;96834.36;1694752;82;28262;-83
2021/07/13 06:00:36;;;;;;;17.15;15.35;;;;;;;18.22;82.77;96833.29;1693955;83;25756;-84
2021/07/13 06:03:03;;;;;;;20.85;16.40;;;;;;;18.28;82.73;96832.17;1694290;83;25884;-86
2021/07/13 06:05:29;;;;;;;19.48;16.42;;;;;;;18.32;82.53;96833.28;1702570;82;26369;-86
2021/07/13 06:07:56;;;;;;;18.30;15.63;;;;;;;18.26;82.12;96834.36;1724107;83;25737;-85
2021/07/13 06:10:22;;;;;;;17.67;15.25;;;;;;;18.26;82.24;96837.09;1700267;82;27286;-86
2021/07/13 06:12:49;;;;;;;17.75;15.75;;;;;;;18.31;82.32;96827.54;1701081;82;26218;-84
2021/07/13 06:15:16;;;;;;;16.30;14.47;;;;;;;18.39;82.44;96828.06;1693743;83;25789;-86
2021/07/13 06:17:43;;;;;;;17.27;15.68;;;;;;;18.45;82.30;96832.45;1694443;83;25769;-86
2021/07/13 06:20:12;;;;;;;16.07;14.38;;;;;;;18.49;82.21;96829.41;1703485;82;25765;-85
2021/07/13 06:22:39;;;;;;;18.27;15.13;;;;;;;18.55;82.32;96829.15;1702820;82;27391;-85
2021/07/13 06:25:07;;;;;;;16.23;14.55;;;;;;;18.63;82.42;96827.78;1713467;83;25729;-85
2021/07/13 06:27:35;;;;;;;15.38;13.80;;;;;;;18.71;82.45;96825.88;1723917;82;26461;-87
2021/07/13 06:30:03;;;;;;;16.82;15.13;;;;;;;18.80;82.38;96822.84;1724143;83;26336;-85
2021/07/13 06:32:30;;;;;;;16.45;14.75;;;;;;;18.91;82.31;96822.25;1703576;81;25750;-85
2021/07/13 06:34:56;;;;;;;15.48;13.93;;;;;;;18.98;82.17;96826.87;1704927;83;27396;-85
2021/07/13 06:37:24;;;;;;;15.85;14.25;;;;;;;19.07;82.17;96821.12;1693222;83;25766;-86
2021/07/13 06:39:51;;;;;;;17.65;15.18;;;;;;;19.16;82.17;96816.69;1694748;83;25867;-85
2021/07/13 06:42:17;;;;;;;17.65;15.30;;;;;;;19.21;82.09;96812.55;1709951;83;25757;-85
2021/07/13 06:44:44;;;;;;;17.17;15.58;;;;;;;19.29;82.08;96815.27;1703448;83;25800;-86
2021/07/13 06:47:10;;;;;;;16.07;14.50;;;;;;;19.35;82.16;96805.92;1717098;83;27646;-85
2021/07/13 06:49:37;;;;;;;15.20;13.60;;;;;;;19.43;81.95;96807.54;1706933;82;26455;-87
2021/07/13 06:52:05;;;;;;;15.80;14.18;;;;;;;19.52;81.72;96810.52;1707158;82;25760;-85
2021/07/13 06:54:31;;;;;;;15.13;13.70;;;;;;;19.61;81.67;96814.29;1718177;82;25682;-85
2021/07/13 06:56:58;;;;;;;16.23;13.85;;;;;;;19.67;81.38;96817.28;1716515;83;25792;-85
2021/07/13 06:59:24;;;;;;;15.95;14.43;;;;;;;19.72;81.16;96813.13;1711213;83;28252;-86
2021/07/13 07:01:51;;;;;;;16.62;14.50;;;;;;;19.77;80.97;96810.91;1697526;83;26093;-85
2021/07/13 07:04:18;;;;;;;20.97;14.40;;;;;;;19.84;80.91;96814.69;1694735;83;25753;-85
2021/07/13 07:06:44;;;;;;;16.07;13.20;;;;;;;19.90;80.83;96813.56;1697064;83;26346;-86
2021/07/13 07:09:11;;;;;;;14.83;13.50;;;;;;;19.96;80.71;96808.30;1724211;83;25754;-86
2021/07/13 07:11:38;;;;;;;15.32;13.72;;;;;;;20.01;80.37;96805.53;1711723;82;27413;-86
2021/07/13 07:15:55;;;;;;;14.65;13.30;;;;;;;20.18;80.24;96810.03;1866755;76;25585;-85
2021/07/13 07:18:22;;;;;;;14.47;12.90;;;;;;;20.23;79.97;96813.30;1805004;78;25669;-84
2021/07/13 07:20:49;;;;;;;14.43;13.15;;;;;;;20.28;79.93;96805.86;1793249;78;28200;-86
2021/07/13 07:23:15;;;;;;;15.68;14.18;;;;;;;20.35;79.82;96809.11;1817687;77;25697;-85
2021/07/13 07:25:42;;;;;;;16.02;14.45;;;;;;;20.49;80.04;96810.62;1817873;78;25882;-85
2021/07/13 07:28:11;;;;;;;16.48;14.83;;;;;;;20.60;79.80;96804.48;1797088;78;25723;-85
2021/07/13 07:30:38;;;;;;;14.85;13.32;;;;;;;20.68;79.45;96806.58;1815503;77;25719;-85
2021/07/13 07:33:05;;;;;;;17.25;14.90;;;;;;;20.76;79.28;96800.48;1824090;78;27368;-85
2021/07/13 07:35:32;;;;;;;16.62;15.03;;;;;;;20.85;79.34;96794.61;1824202;78;26304;-84
2021/07/13 07:37:59;;;;;;;17.27;14.70;;;;;;;20.95;79.41;96788.19;1824015;78;25685;-84
2021/07/13 07:40:27;;;;;;;16.55;14.90;;;;;;;21.05;79.58;96791.63;1824060;78;25802;-87
2021/07/13 07:42:56;;;;;;;17.00;14.53;;;;;;;21.13;79.32;96788.80;1821415;78;25862;-85
2021/07/13 07:45:23;;;;;;;16.10;14.50;;;;;;;21.22;79.13;96780.20;1792118;78;27935;-88
2021/07/13 07:47:51;;;;;;;18.65;15.25;;;;;;;21.33;79.15;96780.33;1823025;77;25991;-86
2021/07/13 07:50:20;;;;;;;17.87;14.63;;;;;;;21.44;78.88;96778.25;1798677;78;25764;-85
2021/07/13 07:52:47;;;;;;;16.27;14.55;;;;;;;21.53;78.70;96778.66;1820447;77;25720;-84
2021/07/13 07:55:15;;;;;;;16.15;14.55;;;;;;;21.65;78.69;96774.09;1824140;78;25684;-85
2021/07/13 07:57:43;;;;;;;15.90;14.47;;;;;;;21.80;78.70;96773.05;1824379;78;27615;-86
2021/07/13 08:00:12;;;;;;;16.32;13.68;;;;;;;22.01;78.90;96777.70;1804725;78;25808;-85
2021/07/13 08:02:40;;;;;;;18.35;13.48;;;;;;;22.59;77.87;96776.11;1813987;78;25947;-85
2021/07/13 08:05:08;;;;;;;13.85;12.33;;;;;;;22.59;77.87;96776.11;1795732;78;25822;-85
2021/07/13 08:07:35;;;;;;;14.75;12.47;;;;;;;22.97;78.03;96775.97;1816764;78;25759;-85
2021/07/13 08:10:05;;;;;;;13.35;12.18;;;;;;;23.34;77.71;96775.74;1824408;77;27332;-85
2021/07/13 08:12:32;;;;;;;13.85;11.80;;;;;;;23.73;76.79;96781.25;1821942;78;26060;-85
2021/07/13 08:14:58;;;;;;;13.95;12.25;;;;;;;24.13;76.37;96785.56;1786260;78;25728;-88
2021/07/13 08:17:25;;;;;;;13.62;11.68;;;;;;;24.50;75.79;96785.20;1759385;81;25734;-86
2021/07/13 08:19:52;;;;;;;11.90;10.75;;;;;;;24.87;75.12;96786.69;1745836;80;25723;-86
2021/07/13 08:22:18;;;;;;;12.63;11.30;;;;;;;25.21;74.54;96787.97;1765509;80;27419;-87
2021/07/13 08:24:47;;;;;;;11.70;10.68;;;;;;;25.53;74.12;96786.74;1775786;80;25795;-86
2021/07/13 08:27:13;;;;;;;11.95;10.82;;;;;;;25.86;73.51;96785.75;1784361;80;25768;-87
2021/07/13 08:29:40;;;;;;;10.90;9.80;;;;;;;26.10;72.84;96779.16;1781414;80;25657;-85
2021/07/13 08:32:07;;;;;;;10.70;9.70;;;;;;;26.36;72.02;96779.16;1769459;80;25704;-86
2021/07/13 08:34:35;;;;;;;10.55;9.68;;;;;;;26.55;71.30;96779.63;1764361;80;27352;-86
2021/07/13 08:37:04;;;;;;;10.45;9.30;;;;;;;26.84;71.12;96775.54;1758794;80;25823;-85
2021/07/13 08:39:31;;;;;;;10.32;9.35;;;;;;;27.12;70.52;96770.41;1758993;81;25683;-87
2021/07/13 08:41:59;;;;;;;10.35;9.35;;;;;;;27.48;69.95;96772.66;1759003;80;26115;-90
2021/07/13 08:44:26;;;;;;;10.20;9.20;;;;;;;27.80;68.70;96767.56;1759034;81;26432;-87
2021/07/13 08:46:53;;;;;;;9.93;9.03;;;;;;;28.06;67.20;96772.91;1759039;80;27458;-85
2021/07/13 08:49:21;;;;;;;10.00;8.68;;;;;;;28.25;66.56;96767.16;1758724;80;25983;-87
2021/07/13 08:51:49;;;;;;;9.80;8.93;;;;;;;28.45;66.06;96775.77;1731081;81;25853;-85
2021/07/13 08:54:16;;;;;;;9.30;8.53;;;;;;;28.55;64.89;96773.95;1754722;80;25856;-86
2021/07/13 08:56:43;;;;;;;10.00;9.13;;;;;;;28.76;64.57;96776.08;1757772;80;25770;-86
2021/07/13 08:59:10;;;;;;;9.53;8.70;;;;;;;28.93;63.83;96771.75;1759072;80;28187;-87
2021/07/13 09:01:37;;;;;;;9.23;8.40;;;;;;;29.16;63.42;96774.08;1758564;80;25745;-86
2021/07/13 09:04:06;;;;;;;11.05;8.85;;;;;;;29.48;62.73;96774.56;1759125;80;25789;-86
2021/07/13 09:06:57;;;;;;;10.60;8.45;;;;;;;29.74;62.39;96777.78;1759057;80;25750;-87
2021/07/13 09:09:28;;;;;;;9.63;8.73;;;;;;;29.89;62.10;96769.30;1757027;80;25713;-89
2021/07/13 09:12:17;;;;;;;11.45;8.35;;;;;;;30.11;61.49;96763.80;1758995;80;28195;-89
2021/07/13 09:15:07;;;;;;;9.48;8.10;;;;;;;30.34;60.82;96763.48;1754326;80;25801;-85
2021/07/13 09:17:40;;;;;;;8.35;7.55;;;;;;;30.57;59.89;96761.53;1755729;81;25213;-86
2021/07/13 09:20:23;;;;;;;9.60;8.70;;;;;;;30.64;59.77;96761.75;1755845;80;26183;-89
2021/07/13 09:23:00;;;;;;;8.53;7.72;;;;;;;30.58;59.49;96760.38;1756324;80;25686;-87
2021/07/13 09:25:50;;;;;;;9.78;8.28;;;;;;;30.80;58.77;96762.56;1754783;80;28202;-91
2021/07/13 09:28:18;;;;;;;10.53;8.45;;;;;;;31.07;58.30;96761.68;1755675;81;25735;-88
2021/07/13 09:30:58;;;;;;;9.45;8.65;;;;;;;31.29;57.47;96758.05;1755883;81;25685;-92
2021/07/13 09:33:34;;;;;;;9.18;8.20;;;;;;;31.43;57.14;96759.80;1756070;80;25342;-91
2021/07/13 09:36:11;;;;;;;9.78;8.78;;;;;;;31.54;56.48;96757.25;1756001;80;25758;-92
2021/07/13 09:38:45;;;;;;;11.97;8.83;;;;;;;31.61;56.12;96760.23;1732551;80;27609;-90
2021/07/13 09:41:18;;;;;;;9.40;8.55;;;;;;;31.74;55.60;96754.20;1753493;80;25863;-87
2021/07/13 09:44:10;;;;;;;9.05;8.10;;;;;;;31.83;55.07;96756.77;1773466;80;25687;-89
2021/07/13 09:46:44;;;;;;;9.35;8.60;;;;;;;31.88;55.23;96759.88;1771305;80;25689;-86
2021/07/13 09:49:14;;;;;;;11.15;8.83;;;;;;;31.97;54.36;96757.68;1772760;80;25832;-91
2021/07/13 09:51:50;;;;;;;;;;;;;;;31.92;54.09;96759.34;1776046;80;28166;-87
2021/07/13 09:54:39;;;;;;;9.93;8.03;;;;;;;31.97;53.07;96756.28;1772937;80;25801;-88
2021/07/13 09:57:23;;;;;;;9.25;8.30;;;;;;;31.89;54.26;96758.67;1755946;80;26324;-82
2021/07/13 09:59:56;;;;;;;9.40;8.60;;;;;;;31.93;54.11;96743.64;1755960;80;25758;-82
2021/07/13 10:02:26;;;;;;;9.45;8.38;;;;;;;31.99;53.62;96749.75;1729034;80;25956;-92
2021/07/13 10:04:55;;;;;;;8.68;7.97;;;;;;;31.99;53.15;96749.75;1776461;78;28138;-88
2021/07/13 10:07:21;;;;;;;10.93;9.00;;;;;;;32.00;52.85;96747.19;1769446;80;25768;-86
2021/07/13 10:09:52;;;;;;;12.60;8.98;;;;;;;32.00;52.93;96745.17;1745331;80;25257;-88
2021/07/13 10:12:23;;;;;;;8.98;8.18;;;;;;;32.05;52.72;96742.10;1751484;78;25704;-86
2021/07/13 10:14:56;;;;;;;9.75;8.78;;;;;;;32.09;52.49;96738.00;1755917;81;25241;-91
2021/07/13 10:17:31;;;;;;;9.25;8.20;;;;;;;32.09;52.99;96738.81;1736971;80;28197;-87
2021/07/13 10:20:05;;;;;;;9.15;8.15;;;;;;;32.03;52.61;96745.03;1749270;80;25769;-90
2021/07/13 10:22:35;;;;;;;12.35;7.60;;;;;;;31.89;52.46;96746.12;1773244;80;26375;-86
2021/07/13 10:25:04;;;;;;;8.58;7.75;;;;;;;31.93;51.67;96743.64;1720862;80;25728;-87
2021/07/13 10:27:41;;;;;;;8.05;7.40;;;;;;;32.01;51.20;96745.98;1773743;80;25590;-86
2021/07/13 10:30:15;;;;;;;8.10;7.33;;;;;;;32.03;50.91;96741.66;1773363;80;27546;-87
2021/07/13 10:32:43;;;;;;;10.60;8.15;;;;;;;32.13;50.42;96743.05;1755915;80;25797;-88
2021/07/13 10:35:33;;;;;;;8.53;7.40;;;;;;;32.09;50.93;96739.39;1769887;80;26567;-88
2021/07/13 10:38:20;;;;;;;8.23;7.28;;;;;;;32.15;50.16;96740.12;1755821;80;25882;-87
2021/07/13 10:40:45;;;;;;;8.60;7.90;;;;;;;32.22;49.91;96740.90;1755481;81;25745;-89
2021/07/13 10:43:27;;;;;;;8.40;7.70;;;;;;;32.27;49.12;96737.79;1755943;80;27362;-85
2021/07/13 10:46:09;;;;;;;9.15;7.95;;;;;;;32.26;48.89;96734.78;1741049;80;25283;-87
2021/07/13 10:48:38;;;;;;;10.75;7.97;;;;;;;32.11;49.96;96733.67;1738531;81;25710;-85
2021/07/13 10:51:08;;;;;;;9.50;7.95;;;;;;;32.16;49.22;96731.16;1756243;80;25824;-87
2021/07/13 10:53:40;;;;;;;10.30;8.05;;;;;;;32.24;48.94;96723.20;1755792;80;25793;-85
2021/07/13 10:56:18;;;;;;;9.10;8.23;;;;;;;32.35;48.42;96718.63;1756370;80;27434;-88
2021/07/13 10:58:49;;;;;;;8.98;8.10;;;;;;;32.33;48.98;96720.97;1753301;80;25673;-93
2021/07/13 11:01:26;;;;;;;12.85;7.92;;;;;;;32.35;49.29;96719.21;1756321;80;25778;-88
2021/07/13 11:03:59;;;;;;;8.88;8.15;;;;;;;32.43;48.43;96716.18;1750035;80;26426;-86
2021/07/13 11:06:48;;;;;;;10.45;7.95;;;;;;;32.48;47.79;96717.25;1756186;80;25832;-86
2021/07/13 11:09:27;;;;;;;9.30;8.00;;;;;;;32.37;47.35;96707.87;1754876;80;28194;-86
2021/07/13 11:12:08;;;;;;;9.10;8.30;;;;;;;32.37;47.36;96705.66;1755998;80;26455;-86
2021/07/13 11:14:51;;;;;;;10.75;8.75;;;;;;;32.27;47.83;96708.47;1756034;80;25730;-86
2021/07/13 11:17:22;;;;;;;9.40;8.50;;;;;;;32.33;48.05;96707.02;1761029;80;25725;-85
2021/07/13 11:19:49;;;;;;;9.45;8.50;;;;;;;32.27;48.64;96705.67;1761791;80;25714;-87
2021/07/13 11:22:19;;;;;;;9.13;8.13;;;;;;;32.20;48.78;96702.17;1761501;80;27525;-86
2021/07/13 11:24:46;;;;;;;11.80;8.80;;;;;;;32.14;48.71;96705.00;1761433;80;25765;-85
2021/07/13 11:27:15;;;;;;;9.20;8.45;;;;;;;32.25;48.73;96697.45;1761165;81;25790;-85
2021/07/13 11:29:51;;;;;;;9.38;8.58;;;;;;;32.23;48.42;96697.84;1759980;80;25724;-85
2021/07/13 11:32:18;;;;;;;9.63;8.65;;;;;;;32.30;49.27;96688.78;1800470;78;25768;-85
2021/07/13 11:34:45;;;;;;;10.05;9.15;;;;;;;32.36;48.80;96695.11;1791064;78;27341;-84
2021/07/13 11:37:11;;;;;;;9.28;8.45;;;;;;;32.35;47.87;96683.72;1767878;80;25689;-86